createdAt,value
2023-03-29T00:00:36.030Z,8.80
2023-03-29T00:03:04.234Z,8.80
2023-03-29T00:05:34.035Z,8.80
2023-03-29T00:08:04.591Z,8.80
2023-03-29T00:10:35.363Z,8.80
2023-03-29T00:13:03.202Z,8.80
2023-03-29T00:15:31.394Z,8.80
2023-03-29T00:17:59.768Z,8.80
2023-03-29T00:20:27.329Z,8.80
2023-03-29T00:22:55.422Z,8.80
2023-03-29T00:25:24.739Z,8.80
2023-03-29T00:27:52.427Z,8.90
2023-03-29T00:30:19.628Z,8.90
2023-03-29T00:32:47.833Z,8.90
2023-03-29T00:35:15.037Z,9.00
2023-03-29T00:37:47.262Z,8.90
2023-03-29T00:40:15.652Z,8.90
2023-03-29T00:42:47.082Z,8.90
2023-03-29T00:45:19.325Z,8.90
2023-03-29T00:47:57.503Z,8.90
2023-03-29T00:50:48.678Z,8.90
2023-03-29T00:53:33.919Z,8.90
2023-03-29T00:56:13.062Z,9.00
2023-03-29T00:58:55.055Z,9.00
2023-03-29T01:01:42.458Z,8.90
2023-03-29T01:04:25.332Z,8.90
2023-03-29T01:07:07.560Z,8.90
2023-03-29T01:09:39.305Z,8.90
2023-03-29T01:12:20.948Z,9.00
2023-03-29T01:15:01.768Z,9.00
2023-03-29T01:17:31.766Z,9.00
2023-03-29T01:20:15.417Z,9.00
2023-03-29T01:23:14.334Z,9.10
2023-03-29T01:26:20.527Z,9.00
2023-03-29T01:28:54.676Z,9.00
2023-03-29T01:31:47.140Z,8.90
2023-03-29T01:34:30.944Z,8.90
2023-03-29T01:37:27.595Z,9.00
2023-03-29T01:39:55.926Z,8.90
2023-03-29T01:42:37.029Z,9.00
2023-03-29T01:45:45.634Z,8.90
2023-03-29T01:48:39.724Z,8.90
2023-03-29T01:51:14.307Z,8.90
2023-03-29T01:54:05.976Z,8.90
2023-03-29T01:56:39.451Z,8.90
2023-03-29T01:59:13.111Z,8.90
2023-03-29T02:01:49.450Z,8.90
2023-03-29T02:04:40.467Z,8.90
2023-03-29T02:07:10.628Z,8.90
2023-03-29T02:09:39.999Z,8.90
2023-03-29T02:12:08.376Z,8.90
2023-03-29T02:14:39.045Z,8.90
2023-03-29T02:17:26.214Z,8.90
2023-03-29T02:20:17.713Z,8.90
2023-03-29T02:23:04.884Z,9.00
2023-03-29T02:25:32.745Z,9.00
2023-03-29T02:28:00.881Z,9.00
2023-03-29T02:30:38.622Z,9.10
2023-03-29T02:33:18.280Z,9.10
2023-03-29T02:35:53.336Z,9.10
2023-03-29T02:38:22.110Z,9.20
2023-03-29T02:40:49.606Z,9.20
2023-03-29T02:43:17.421Z,9.20
2023-03-29T02:45:46.494Z,9.20
2023-03-29T02:48:18.233Z,9.20
2023-03-29T02:50:56.406Z,9.20
2023-03-29T02:53:32.158Z,9.30
2023-03-29T02:56:02.335Z,9.30
2023-03-29T02:58:31.738Z,9.30
2023-03-29T03:01:01.518Z,9.30
2023-03-29T03:03:29.570Z,9.40
2023-03-29T03:06:01.638Z,9.40
2023-03-29T03:08:30.761Z,9.40
2023-03-29T03:10:59.859Z,9.40
2023-03-29T03:13:27.340Z,9.50
2023-03-29T03:15:54.837Z,9.40
2023-03-29T03:18:23.734Z,9.50
2023-03-29T03:21:04.854Z,9.40
2023-03-29T03:23:32.143Z,9.50
2023-03-29T03:26:02.164Z,9.50
2023-03-29T03:28:32.732Z,9.50
2023-03-29T03:31:00.827Z,9.50
2023-03-29T03:33:56.935Z,9.50
2023-03-29T03:36:41.456Z,9.50
2023-03-29T03:39:12.057Z,9.50
2023-03-29T03:41:49.750Z,9.50
2023-03-29T03:44:21.060Z,9.50
2023-03-29T03:47:01.113Z,9.50
2023-03-29T03:49:28.540Z,9.50
2023-03-29T03:51:55.704Z,9.60
2023-03-29T03:54:24.274Z,9.50
2023-03-29T03:57:17.650Z,9.50
2023-03-29T03:59:50.467Z,9.50
2023-03-29T04:02:25.812Z,9.50
2023-03-29T04:04:54.977Z,9.50
2023-03-29T04:07:28.717Z,9.50
2023-03-29T04:10:11.485Z,9.50
2023-03-29T04:13:06.746Z,9.50
2023-03-29T04:15:41.923Z,9.50
2023-03-29T04:18:14.605Z,9.50
2023-03-29T04:20:46.049Z,9.40
2023-03-29T04:23:22.276Z,9.30
2023-03-29T04:25:55.955Z,9.40
2023-03-29T04:28:47.078Z,9.30
2023-03-29T04:31:32.371Z,9.30
2023-03-29T04:34:23.403Z,9.20
2023-03-29T04:36:59.980Z,9.20
2023-03-29T04:39:34.239Z,9.20
2023-03-29T04:42:05.255Z,9.10
2023-03-29T04:44:35.478Z,9.10
2023-03-29T04:47:07.285Z,9.10
2023-03-29T04:49:51.884Z,9.00
2023-03-29T04:52:35.602Z,9.00
2023-03-29T04:55:05.836Z,9.10
2023-03-29T04:57:45.403Z,9.10
2023-03-29T05:00:20.997Z,9.10
2023-03-29T05:03:04.999Z,9.20
2023-03-29T05:05:35.607Z,9.20
2023-03-29T05:08:03.465Z,9.20
2023-03-29T05:10:59.616Z,9.20
2023-03-29T05:13:32.653Z,9.20
2023-03-29T05:16:01.338Z,9.30
2023-03-29T05:18:29.964Z,9.30
2023-03-29T05:20:58.644Z,9.40
2023-03-29T05:23:27.682Z,9.40
2023-03-29T05:26:24.073Z,9.50
2023-03-29T05:28:56.787Z,9.50
2023-03-29T05:31:24.177Z,9.60
2023-03-29T05:33:54.594Z,9.60
2023-03-29T05:36:22.120Z,9.60
2023-03-29T05:38:50.475Z,9.70
2023-03-29T05:41:22.795Z,9.70
2023-03-29T05:44:11.880Z,9.70
2023-03-29T05:46:41.934Z,9.60
2023-03-29T05:49:13.454Z,9.60
2023-03-29T05:51:57.033Z,9.60
2023-03-29T05:54:26.309Z,9.50
2023-03-29T05:56:53.502Z,9.60
2023-03-29T05:59:24.591Z,9.60
2023-03-29T06:01:52.084Z,9.70
2023-03-29T06:04:21.480Z,9.70
2023-03-29T06:07:00.481Z,9.70
2023-03-29T06:09:32.276Z,9.70
2023-03-29T06:12:04.055Z,9.70
2023-03-29T06:14:50.513Z,9.70
2023-03-29T06:17:34.854Z,9.80
2023-03-29T06:20:02.806Z,9.80
2023-03-29T06:22:31.655Z,9.80
2023-03-29T06:24:59.694Z,9.80
2023-03-29T06:27:34.399Z,9.80
2023-03-29T06:30:05.899Z,9.90
2023-03-29T06:32:35.806Z,9.90
2023-03-29T06:35:12.388Z,9.80
2023-03-29T06:37:49.846Z,9.80
2023-03-29T06:40:51.511Z,9.80
2023-03-29T06:43:21.936Z,9.80
2023-03-29T06:46:12.343Z,9.90
2023-03-29T06:48:53.757Z,9.90
2023-03-29T06:51:23.443Z,9.90
2023-03-29T06:53:52.761Z,9.90
2023-03-29T06:56:19.800Z,9.90
2023-03-29T06:58:53.638Z,9.90
2023-03-29T07:01:34.773Z,9.90
2023-03-29T07:04:26.276Z,10.00
2023-03-29T07:07:19.966Z,10.10
2023-03-29T07:09:55.657Z,10.10
2023-03-29T07:12:42.377Z,10.20
2023-03-29T07:15:09.841Z,10.30
2023-03-29T07:18:09.318Z,10.40
2023-03-29T07:20:57.060Z,10.30
2023-03-29T07:23:24.290Z,10.30
2023-03-29T07:25:51.753Z,10.30
2023-03-29T07:28:20.581Z,10.40
2023-03-29T07:30:47.979Z,10.40
2023-03-29T07:33:22.421Z,10.50
2023-03-29T07:35:55.730Z,10.50
2023-03-29T07:38:22.972Z,10.60
2023-03-29T07:41:15.277Z,10.60
2023-03-29T07:43:51.974Z,10.60
2023-03-29T07:46:30.966Z,10.70
2023-03-29T07:48:57.972Z,10.70
2023-03-29T07:51:27.829Z,10.80
2023-03-29T07:54:03.418Z,10.80
2023-03-29T07:56:45.601Z,10.90
2023-03-29T07:59:23.124Z,11.00
2023-03-29T08:02:01.290Z,11.00
2023-03-29T08:04:38.835Z,11.10
2023-03-29T08:07:21.358Z,11.00
2023-03-29T08:10:09.879Z,11.00
2023-03-29T08:12:55.843Z,10.90
2023-03-29T08:15:34.964Z,10.90
2023-03-29T08:18:03.213Z,11.00
2023-03-29T08:20:31.024Z,11.00
2023-03-29T08:23:05.288Z,11.10
2023-03-29T08:25:47.241Z,11.20
2023-03-29T08:28:20.249Z,11.20
2023-03-29T08:30:51.331Z,11.40
2023-03-29T08:33:18.747Z,11.40
2023-03-29T08:35:50.826Z,11.40
2023-03-29T08:38:27.926Z,11.40
2023-03-29T08:40:58.201Z,11.50
2023-03-29T08:44:13.700Z,11.60
2023-03-29T08:47:07.826Z,11.80
2023-03-29T08:49:44.446Z,11.90
2023-03-29T08:52:31.415Z,11.90
2023-03-29T08:55:16.422Z,11.80
2023-03-29T08:58:12.055Z,11.70
2023-03-29T09:00:54.350Z,11.90
2023-03-29T09:03:24.267Z,12.00
2023-03-29T09:06:16.308Z,12.10
2023-03-29T09:08:52.285Z,12.20
2023-03-29T09:11:32.731Z,12.10
2023-03-29T09:14:26.739Z,12.10
2023-03-29T09:17:29.814Z,12.30
2023-03-29T09:20:13.725Z,12.40
2023-03-29T09:22:47.865Z,12.50
2023-03-29T09:25:25.248Z,12.40
2023-03-29T09:28:05.591Z,12.30
2023-03-29T09:31:19.677Z,12.30
2023-03-29T09:33:57.436Z,12.60
2023-03-29T09:36:50.566Z,12.90
2023-03-29T09:39:21.130Z,12.90
2023-03-29T09:41:55.096Z,12.90
2023-03-29T09:44:31.765Z,12.70
2023-03-29T09:47:15.064Z,12.70
2023-03-29T09:49:50.425Z,12.70
2023-03-29T09:52:20.009Z,12.60
2023-03-29T09:55:12.963Z,12.70
2023-03-29T09:58:20.481Z,12.80
2023-03-29T10:00:53.145Z,12.90
2023-03-29T10:03:29.894Z,13.00
2023-03-29T10:06:12.611Z,13.20
2023-03-29T10:08:50.485Z,13.30
2023-03-29T10:11:23.457Z,13.40
2023-03-29T10:13:57.457Z,13.60
2023-03-29T10:16:30.518Z,13.80
2023-03-29T10:18:57.637Z,13.90
2023-03-29T10:21:25.625Z,13.70
2023-03-29T10:24:03.737Z,14.00
2023-03-29T10:26:33.182Z,14.40
2023-03-29T10:29:06.453Z,14.50
2023-03-29T10:31:38.167Z,14.80
2023-03-29T10:34:08.345Z,15.10
2023-03-29T10:36:38.726Z,14.90
2023-03-29T10:39:06.668Z,14.60
2023-03-29T10:41:38.496Z,14.60
2023-03-29T10:44:23.999Z,14.80
2023-03-29T10:46:54.597Z,14.90
2023-03-29T10:49:24.353Z,14.70
2023-03-29T10:51:53.775Z,14.70
2023-03-29T10:54:24.733Z,14.70
2023-03-29T10:56:57.874Z,14.70
2023-03-29T10:59:31.508Z,14.70
2023-03-29T11:02:15.415Z,14.80
2023-03-29T11:05:01.557Z,14.60
2023-03-29T11:07:35.643Z,14.60
2023-03-29T11:10:30.817Z,14.60
2023-03-29T11:13:09.233Z,14.80
2023-03-29T11:15:46.529Z,14.90
2023-03-29T11:18:39.287Z,15.00
2023-03-29T11:21:28.142Z,15.20
2023-03-29T11:24:10.709Z,15.00
2023-03-29T11:27:09.489Z,14.80
2023-03-29T11:30:21.887Z,15.00
2023-03-29T11:33:28.056Z,15.20
2023-03-29T11:36:09.471Z,15.10
2023-03-29T11:39:04.933Z,14.90
2023-03-29T11:41:42.676Z,14.60
2023-03-29T11:44:27.939Z,14.80
2023-03-29T11:47:14.183Z,14.90
2023-03-29T11:49:42.018Z,14.90
2023-03-29T11:52:37.045Z,15.00
2023-03-29T11:55:18.649Z,15.30
2023-03-29T11:57:57.302Z,15.40
2023-03-29T12:00:30.279Z,15.60
2023-03-29T12:03:16.835Z,15.70
2023-03-29T12:05:52.225Z,16.00
2023-03-29T12:08:29.473Z,16.50
2023-03-29T12:11:25.551Z,16.70
2023-03-29T12:14:18.654Z,16.30
2023-03-29T12:17:11.785Z,16.10
2023-03-29T12:19:48.794Z,15.90
2023-03-29T12:22:16.846Z,15.60
2023-03-29T12:24:48.116Z,15.50
2023-03-29T12:27:53.812Z,15.60
2023-03-29T12:30:45.723Z,15.70
2023-03-29T12:33:27.220Z,15.80
2023-03-29T12:36:24.630Z,16.00
2023-03-29T12:39:18.959Z,16.00
2023-03-29T12:42:13.345Z,16.00
2023-03-29T12:45:01.750Z,15.90
2023-03-29T12:47:43.965Z,16.10
2023-03-29T12:50:33.591Z,16.00
2023-03-29T12:53:38.703Z,15.90
2023-03-29T12:56:09.002Z,16.10
2023-03-29T12:58:39.952Z,16.20
2023-03-29T13:01:08.760Z,16.00
2023-03-29T13:04:00.682Z,16.20
2023-03-29T13:06:50.982Z,16.40
2023-03-29T13:09:47.123Z,16.20
2023-03-29T13:12:27.387Z,16.40
2023-03-29T13:15:07.566Z,16.50
2023-03-29T13:17:49.735Z,16.60
2023-03-29T13:23:47.911Z,16.80
2023-03-29T13:26:45.997Z,16.90
2023-03-29T13:30:00.782Z,16.90
2023-03-29T13:32:37.783Z,16.70
2023-03-29T13:35:18.470Z,16.30
2023-03-29T13:37:53.451Z,16.50
2023-03-29T13:40:46.970Z,16.70
2023-03-29T13:43:20.696Z,16.90
2023-03-29T13:45:56.862Z,16.90
2023-03-29T13:48:28.423Z,16.90
2023-03-29T13:51:02.246Z,17.00
2023-03-29T13:53:48.723Z,16.80
2023-03-29T13:56:19.918Z,16.90
2023-03-29T13:58:56.868Z,16.80
2023-03-29T14:01:41.178Z,16.80
2023-03-29T14:04:17.060Z,16.70
2023-03-29T14:06:51.757Z,16.70
2023-03-29T14:09:28.534Z,16.80
2023-03-29T14:11:56.586Z,16.90
2023-03-29T14:14:26.865Z,16.90
2023-03-29T14:16:56.503Z,17.00
2023-03-29T14:19:36.522Z,17.10
2023-03-29T14:22:09.647Z,17.30
2023-03-29T14:24:48.031Z,17.30
2023-03-29T14:27:16.777Z,17.20
2023-03-29T14:29:49.518Z,17.20
2023-03-29T14:32:31.157Z,17.40
2023-03-29T14:35:01.236Z,17.20
2023-03-29T14:37:30.356Z,17.10
2023-03-29T14:39:59.360Z,17.00
2023-03-29T14:42:29.764Z,17.00
2023-03-29T14:45:09.276Z,16.90
2023-03-29T14:47:38.879Z,16.80
2023-03-29T14:50:07.156Z,16.90
2023-03-29T14:52:35.082Z,16.90
2023-03-29T14:55:04.292Z,16.80
2023-03-29T14:57:36.385Z,16.90
2023-03-29T15:00:35.101Z,17.00
2023-03-29T15:03:03.660Z,16.90
2023-03-29T15:05:38.745Z,16.80
2023-03-29T15:08:10.877Z,16.90
2023-03-29T15:10:38.836Z,16.80
2023-03-29T15:13:24.747Z,16.90
2023-03-29T15:15:56.168Z,17.00
2023-03-29T15:18:41.728Z,17.00
2023-03-29T15:21:10.987Z,17.20
2023-03-29T15:23:59.556Z,17.20
2023-03-29T15:26:44.639Z,17.10
2023-03-29T15:29:23.709Z,17.10
2023-03-29T15:31:58.999Z,17.10
2023-03-29T15:34:31.159Z,17.10
2023-03-29T15:36:58.690Z,17.20
2023-03-29T15:39:30.215Z,17.20
2023-03-29T15:41:58.613Z,17.20
2023-03-29T15:44:48.832Z,17.30
2023-03-29T15:47:16.863Z,17.30
2023-03-29T15:49:50.092Z,17.20
2023-03-29T15:52:17.125Z,17.20
2023-03-29T15:54:44.155Z,17.40
2023-03-29T15:57:15.152Z,17.40
2023-03-29T15:59:43.481Z,17.40
2023-03-29T16:02:16.611Z,17.50
2023-03-29T16:04:43.918Z,17.50
2023-03-29T16:07:14.989Z,17.50
2023-03-29T16:09:42.433Z,17.40
2023-03-29T16:12:13.354Z,17.40
2023-03-29T16:14:42.613Z,17.30
2023-03-29T16:17:10.170Z,17.30
2023-03-29T16:19:37.673Z,17.20
2023-03-29T16:22:07.492Z,17.10
2023-03-29T16:24:35.220Z,17.20
2023-03-29T16:27:05.284Z,17.20
2023-03-29T16:29:35.648Z,17.10
2023-03-29T16:32:04.732Z,17.00
2023-03-29T16:34:33.580Z,17.00
2023-03-29T16:37:01.226Z,17.00
2023-03-29T16:39:29.179Z,16.90
2023-03-29T16:42:04.126Z,17.00
2023-03-29T16:44:31.384Z,17.00
2023-03-29T16:46:59.425Z,17.00
2023-03-29T16:49:41.899Z,17.00
2023-03-29T16:52:10.836Z,17.00
2023-03-29T16:54:38.966Z,17.00
2023-03-29T16:57:08.248Z,17.00
2023-03-29T16:59:35.562Z,17.10
2023-03-29T17:02:10.808Z,17.10
2023-03-29T17:04:39.620Z,17.20
2023-03-29T17:07:07.058Z,17.10
2023-03-29T17:09:34.622Z,17.10
2023-03-29T17:12:02.670Z,17.20
2023-03-29T17:14:31.737Z,17.20
2023-03-29T17:16:59.796Z,17.20
2023-03-29T17:19:27.268Z,17.10
2023-03-29T17:21:54.197Z,17.10
2023-03-29T17:24:21.335Z,17.10
2023-03-29T17:26:48.297Z,17.10
2023-03-29T17:29:16.424Z,17.20
2023-03-29T17:31:47.827Z,17.00
2023-03-29T17:34:19.309Z,16.90
2023-03-29T17:36:53.251Z,16.80
2023-03-29T17:39:25.315Z,16.70
2023-03-29T17:41:56.276Z,16.70
2023-03-29T17:44:27.525Z,16.70
2023-03-29T17:46:56.102Z,16.60
2023-03-29T17:49:34.746Z,16.60
2023-03-29T17:52:03.123Z,16.60
2023-03-29T17:54:36.590Z,16.50
2023-03-29T17:57:07.649Z,16.60
2023-03-29T17:59:38.388Z,16.50
2023-03-29T18:02:05.922Z,16.50
2023-03-29T18:04:33.961Z,16.50
2023-03-29T18:07:03.282Z,16.50
2023-03-29T18:09:31.506Z,16.40
2023-03-29T18:11:58.712Z,16.40
2023-03-29T18:14:26.085Z,16.40
2023-03-29T18:16:58.926Z,16.40
2023-03-29T18:19:28.129Z,16.30
2023-03-29T18:21:56.439Z,16.20
2023-03-29T18:24:23.350Z,16.20
2023-03-29T18:26:50.729Z,16.20
2023-03-29T18:29:17.835Z,16.20
2023-03-29T18:31:48.162Z,16.10
2023-03-29T18:34:15.595Z,16.00
2023-03-29T18:36:42.795Z,16.00
2023-03-29T18:39:15.617Z,16.00
2023-03-29T18:41:42.664Z,16.00
2023-03-29T18:44:10.656Z,16.00
2023-03-29T18:46:52.671Z,16.00
2023-03-29T18:49:19.860Z,16.00
2023-03-29T18:51:50.893Z,16.00
2023-03-29T18:54:19.439Z,16.00
2023-03-29T18:56:46.656Z,16.00
2023-03-29T18:59:18.340Z,15.90
2023-03-29T19:01:45.831Z,16.00
2023-03-29T19:06:56.536Z,15.90
2023-03-29T19:12:06.366Z,15.90
2023-03-29T19:14:33.696Z,15.80
2023-03-29T19:17:01.171Z,15.70
2023-03-29T19:19:31.838Z,15.70
2023-03-29T19:22:00.884Z,15.80
2023-03-29T19:24:31.187Z,15.70
2023-03-29T19:27:06.598Z,15.70
2023-03-29T19:29:33.925Z,15.70
2023-03-29T19:32:02.948Z,15.80
2023-03-29T19:34:31.821Z,15.70
2023-03-29T19:37:01.583Z,15.60
2023-03-29T19:39:29.822Z,15.70
2023-03-29T19:41:57.432Z,15.60
2023-03-29T19:44:25.589Z,15.70
2023-03-29T19:46:54.853Z,15.60
2023-03-29T19:49:21.879Z,15.50
2023-03-29T19:51:54.556Z,15.60
2023-03-29T19:54:23.803Z,15.60
2023-03-29T19:56:52.543Z,15.60
2023-03-29T19:59:22.163Z,15.50
2023-03-29T20:01:52.835Z,15.50
2023-03-29T20:04:26.099Z,15.50
2023-03-29T20:06:54.560Z,15.50
2023-03-29T20:09:23.407Z,15.50
2023-03-29T20:11:50.566Z,15.50
2023-03-29T20:14:18.614Z,15.50
2023-03-29T20:16:46.546Z,15.50
2023-03-29T20:19:17.896Z,15.60
2023-03-29T20:21:45.089Z,15.60
2023-03-29T20:24:12.260Z,15.60
2023-03-29T20:26:39.477Z,15.60
2023-03-29T20:29:11.184Z,15.70
2023-03-29T20:31:38.642Z,15.70
2023-03-29T20:34:05.910Z,15.70
2023-03-29T20:36:32.958Z,15.70
2023-03-29T20:39:01.343Z,15.70
2023-03-29T20:41:28.452Z,15.80
2023-03-29T20:43:59.949Z,15.80
2023-03-29T20:46:34.132Z,15.80
2023-03-29T20:49:07.443Z,15.80
2023-03-29T20:51:34.647Z,15.80
2023-03-29T20:54:04.859Z,15.70
2023-03-29T20:56:34.625Z,15.80
2023-03-29T20:59:03.252Z,15.80
2023-03-29T21:01:41.280Z,15.80
2023-03-29T21:04:11.059Z,15.80
2023-03-29T21:06:41.916Z,15.80
2023-03-29T21:09:13.865Z,15.80
2023-03-29T21:11:42.275Z,15.90
2023-03-29T21:14:09.508Z,15.90
2023-03-29T21:16:41.670Z,16.00
2023-03-29T21:19:10.202Z,16.10
2023-03-29T21:21:38.376Z,16.10
2023-03-29T21:24:06.725Z,16.20
2023-03-29T21:26:34.543Z,16.30
2023-03-29T21:29:01.459Z,16.30
2023-03-29T21:31:28.663Z,16.40
2023-03-29T21:33:56.622Z,16.50
2023-03-29T21:36:26.312Z,16.60
2023-03-29T21:38:53.538Z,16.60
2023-03-29T21:41:20.869Z,16.70
2023-03-29T21:43:52.983Z,16.70
2023-03-29T21:46:20.033Z,16.80
2023-03-29T21:48:47.114Z,16.80
2023-03-29T21:51:14.318Z,16.80
2023-03-29T21:53:42.481Z,16.80
2023-03-29T21:56:12.251Z,16.80
2023-03-29T21:58:40.534Z,16.80
2023-03-29T22:01:09.958Z,16.80
2023-03-29T22:03:39.125Z,16.80
2023-03-29T22:06:09.496Z,16.70
2023-03-29T22:08:40.553Z,16.80
2023-03-29T22:11:11.005Z,16.70
2023-03-29T22:13:42.657Z,16.70
2023-03-29T22:16:18.277Z,16.80
2023-03-29T22:18:49.850Z,16.80
2023-03-29T22:21:23.412Z,16.80
2023-03-29T22:23:53.127Z,16.70
2023-03-29T22:26:24.496Z,16.70
2023-03-29T22:28:55.579Z,16.60
2023-03-29T22:31:23.886Z,16.60
2023-03-29T22:33:52.205Z,16.60
2023-03-29T22:36:22.502Z,16.60
2023-03-29T22:38:54.504Z,16.70
2023-03-29T22:41:23.857Z,16.60
2023-03-29T22:43:56.028Z,16.70
2023-03-29T22:46:23.985Z,16.80
2023-03-29T22:48:51.427Z,16.80
2023-03-29T22:51:18.643Z,16.80
2023-03-29T22:53:47.114Z,16.80
2023-03-29T22:56:15.626Z,16.80
2023-03-29T22:58:43.008Z,16.90
2023-03-29T23:01:10.151Z,16.90
2023-03-29T23:03:39.508Z,16.90
2023-03-29T23:06:06.740Z,16.90
2023-03-29T23:08:35.303Z,16.90
2023-03-29T23:11:04.713Z,16.90
2023-03-29T23:13:33.533Z,16.90
2023-03-29T23:16:02.436Z,16.90
2023-03-29T23:18:31.676Z,16.90
2023-03-29T23:20:59.167Z,16.90
2023-03-29T23:23:27.840Z,16.90
2023-03-29T23:25:57.944Z,16.90
2023-03-29T23:28:30.528Z,16.80
2023-03-29T23:31:30.353Z,16.80
2023-03-29T23:33:59.070Z,16.70
2023-03-29T23:36:27.258Z,16.70
2023-03-29T23:38:54.272Z,16.60
2023-03-29T23:41:23.012Z,16.60
2023-03-29T23:43:52.354Z,16.60
2023-03-29T23:46:20.385Z,16.60
2023-03-29T23:48:52.082Z,16.60
2023-03-29T23:51:23.062Z,16.60
2023-03-29T23:53:52.415Z,16.70
2023-03-29T23:56:19.774Z,16.60
2023-03-29T23:58:47.810Z,16.60
